Terminal Aerodrome Forecast
Issued by NWS

Home | Current Version | Previous Version | Text Only | Print | Product List | Glossary On
Versions: 1 2 3 4 5 6 7 8 9 10 11 12 13 14 15 16 17 18 19 20 21 22 23 24
015
FTUS41 KPBZ 181945 AAA
TAFLBE
TAF AMD
KLBE 181945Z 1820/1918 20012KT P6SM OVC035 WS020/22040KT
      TEMPO 1820/1824 -SHRA
     FM190000 21019G36KT 6SM -SHRA OVC025
     FM190700 27022G39KT 4SM -SHRASN OVC015
     FM191100 28017G30KT P6SM VCSH OVC020=

USA.gov is the U.S. government's official web portal to all federal, state and local government web resources and services.